createdAt,value
2023-01-13T00:04:41.657Z,9.76
2023-01-13T00:09:43.106Z,9.72
2023-01-13T00:14:44.549Z,9.75
2023-01-13T00:19:46.533Z,9.75
2023-01-13T00:24:48.042Z,9.70
2023-01-13T00:29:49.348Z,9.69
2023-01-13T00:34:50.882Z,9.62
2023-01-13T00:39:52.718Z,9.65
2023-01-13T00:44:54.130Z,9.70
2023-01-13T00:49:55.563Z,9.65
2023-01-13T00:54:57.015Z,9.72
2023-01-13T00:59:58.388Z,9.73
2023-01-13T01:05:00.881Z,9.78
2023-01-13T01:10:02.738Z,9.77
2023-01-13T01:15:06.087Z,9.79
2023-01-13T01:20:08.172Z,9.78
2023-01-13T01:25:09.730Z,9.81
2023-01-13T01:30:11.621Z,9.83
2023-01-13T01:35:13.115Z,9.84
2023-01-13T01:40:14.517Z,9.79
2023-01-13T01:45:24.004Z,9.81
2023-01-13T01:50:26.549Z,9.85
2023-01-13T01:55:32.907Z,9.86
2023-01-13T02:00:34.567Z,9.89
2023-01-13T02:05:36.636Z,9.81
2023-01-13T02:10:39.802Z,9.80
2023-01-13T02:15:48.520Z,9.80
2023-01-13T02:21:08.479Z,9.81
2023-01-13T02:26:31.841Z,9.81
2023-01-13T02:31:42.750Z,9.86
2023-01-13T02:36:52.132Z,9.89
2023-01-13T02:42:23.768Z,9.94
2023-01-13T02:47:27.584Z,9.89
2023-01-13T02:52:38.269Z,9.95
2023-01-13T02:57:41.180Z,9.96
2023-01-13T03:02:42.922Z,10.00
2023-01-13T03:07:57.508Z,10.06
2023-01-13T03:13:12.653Z,10.10
2023-01-13T03:18:19.301Z,10.14
2023-01-13T03:23:58.967Z,10.15
2023-01-13T03:29:15.030Z,10.16
2023-01-13T03:34:22.498Z,10.17
2023-01-13T03:39:35.201Z,10.21
2023-01-13T03:44:56.739Z,10.17
2023-01-13T03:50:06.438Z,10.18
2023-01-13T03:55:12.984Z,10.16
2023-01-13T04:00:15.736Z,10.20
2023-01-13T04:05:18.441Z,10.22
2023-01-13T04:10:31.398Z,10.22
2023-01-13T04:15:36.643Z,10.21
2023-01-13T04:20:39.899Z,10.24
2023-01-13T04:25:41.834Z,10.25
2023-01-13T04:30:43.928Z,10.27
2023-01-13T04:35:46.599Z,10.26
2023-01-13T04:40:48.068Z,10.29
2023-01-13T04:45:49.903Z,10.31
2023-01-13T04:50:51.370Z,10.32
2023-01-13T04:55:52.818Z,10.31
2023-01-13T05:00:55.459Z,10.36
2023-01-13T05:05:56.904Z,10.37
2023-01-13T05:11:01.415Z,10.26
2023-01-13T05:16:21.830Z,10.14
2023-01-13T05:21:58.849Z,10.08
2023-01-13T05:27:00.169Z,10.03
2023-01-13T05:32:02.573Z,10.11
2023-01-13T05:37:05.668Z,10.19
2023-01-13T05:42:26.765Z,9.88
2023-01-13T05:47:28.637Z,9.97
2023-01-13T05:52:30.018Z,9.98
2023-01-13T05:57:31.542Z,9.84
2023-01-13T06:02:33.117Z,9.58
2023-01-13T06:07:34.483Z,9.48
2023-01-13T06:12:37.030Z,9.51
2023-01-13T06:17:38.401Z,9.46
2023-01-13T06:22:46.742Z,9.34
2023-01-13T06:27:49.326Z,9.45
2023-01-13T06:32:55.326Z,9.45
2023-01-13T06:38:00.153Z,9.37
2023-01-13T06:43:16.621Z,9.38
2023-01-13T06:48:22.226Z,9.38
2023-01-13T06:53:23.671Z,9.35
2023-01-13T06:58:25.218Z,9.31
2023-01-13T07:03:26.603Z,9.36
2023-01-13T07:08:28.487Z,9.26
2023-01-13T07:13:48.391Z,9.09
2023-01-13T07:18:49.948Z,9.03
2023-01-13T07:23:51.397Z,9.10
2023-01-13T07:28:53.118Z,8.97
2023-01-13T07:33:54.556Z,8.93
2023-01-13T07:38:56.906Z,8.80
2023-01-13T07:43:58.476Z,8.72
2023-01-13T07:48:59.937Z,8.72
2023-01-13T07:54:01.301Z,8.71
2023-01-13T07:59:03.791Z,8.72
2023-01-13T08:04:05.242Z,8.82
2023-01-13T08:09:07.077Z,8.88
2023-01-13T08:14:08.486Z,8.96
2023-01-13T08:19:09.936Z,8.99
2023-01-13T08:24:11.382Z,8.99
2023-01-13T08:29:14.886Z,9.02
2023-01-13T08:34:16.565Z,9.03
2023-01-13T08:39:18.724Z,9.01
2023-01-13T08:44:20.331Z,9.05
2023-01-13T08:49:22.451Z,9.17
2023-01-13T08:54:23.820Z,9.16
2023-01-13T08:59:25.636Z,9.20
2023-01-13T09:04:28.501Z,9.31
2023-01-13T09:09:29.935Z,9.41
2023-01-13T09:14:34.368Z,9.28
2023-01-13T09:19:37.510Z,9.34
2023-01-13T09:24:38.970Z,9.37
2023-01-13T09:29:40.442Z,9.41
2023-01-13T09:35:00.515Z,9.49
2023-01-13T09:40:17.900Z,9.84
2023-01-13T09:45:28.277Z,9.87
2023-01-13T09:50:56.963Z,9.91
2023-01-13T09:55:58.845Z,10.03
2023-01-13T10:01:28.042Z,10.19
2023-01-13T10:06:38.793Z,10.63
2023-01-13T10:12:05.242Z,11.03
2023-01-13T10:17:22.329Z,11.10
2023-01-13T10:22:38.859Z,10.92
2023-01-13T10:27:40.785Z,11.03
2023-01-13T10:32:46.399Z,11.17
2023-01-13T10:37:57.079Z,11.29
2023-01-13T10:43:08.339Z,11.98
2023-01-13T10:48:17.158Z,16.75
2023-01-13T10:53:23.608Z,18.52
2023-01-13T10:58:26.213Z,17.12
2023-01-13T11:03:37.593Z,14.65
2023-01-13T11:08:45.367Z,17.04
2023-01-13T11:14:20.813Z,16.86
2023-01-13T11:19:27.822Z,20.94
2023-01-13T11:24:42.760Z,24.08
2023-01-13T11:29:53.303Z,21.43
2023-01-13T11:35:01.008Z,15.41
2023-01-13T11:40:25.767Z,15.02
2023-01-13T11:45:40.930Z,20.65
2023-01-13T11:50:51.255Z,25.28
2023-01-13T11:56:16.396Z,25.39
2023-01-13T12:01:27.575Z,21.37
2023-01-13T12:06:36.540Z,23.11
2023-01-13T12:12:18.907Z,24.43
2023-01-13T12:17:43.645Z,20.94
2023-01-13T12:22:47.871Z,17.46
2023-01-13T12:27:53.165Z,14.41
2023-01-13T12:33:03.188Z,13.96
2023-01-13T12:38:21.057Z,18.24
2023-01-13T12:43:42.824Z,23.20
2023-01-13T12:48:59.748Z,25.30
2023-01-13T12:54:03.336Z,26.43
2023-01-13T12:59:35.076Z,25.51
2023-01-13T13:04:56.909Z,18.11
2023-01-13T13:10:02.250Z,15.38
2023-01-13T13:15:05.036Z,14.37
2023-01-13T13:20:44.833Z,13.41
2023-01-13T13:26:26.562Z,12.98
2023-01-13T13:31:49.207Z,12.69
2023-01-13T13:37:12.041Z,12.40
2023-01-13T13:42:45.371Z,11.83
2023-01-13T13:47:48.474Z,10.46
2023-01-13T13:53:06.576Z,14.77
2023-01-13T13:58:18.174Z,14.20
2023-01-13T14:03:31.906Z,13.04
2023-01-13T14:08:36.496Z,12.12
2023-01-13T14:13:37.877Z,11.76
2023-01-13T14:18:47.472Z,11.61
2023-01-13T14:23:58.228Z,11.39
2023-01-13T14:29:02.447Z,11.38
2023-01-13T14:34:31.468Z,11.56
2023-01-13T14:39:39.677Z,11.29
2023-01-13T14:44:45.713Z,10.83
2023-01-13T14:49:54.890Z,10.40
2023-01-13T14:55:05.338Z,10.24
2023-01-13T15:00:16.131Z,10.33
2023-01-13T15:05:17.824Z,10.30
2023-01-13T15:10:26.821Z,10.12
2023-01-13T15:15:30.238Z,10.23
2023-01-13T15:20:31.622Z,9.99
2023-01-13T15:25:34.707Z,9.93
2023-01-13T15:30:36.096Z,9.84
2023-01-13T15:35:38.958Z,9.89
2023-01-13T15:40:41.337Z,9.91
2023-01-13T15:46:02.099Z,9.88
2023-01-13T15:51:04.052Z,9.83
2023-01-13T15:56:13.455Z,9.79
2023-01-13T16:01:14.979Z,9.72
2023-01-13T16:06:19.803Z,9.65
2023-01-13T16:11:21.118Z,9.50
2023-01-13T16:16:25.407Z,9.33
2023-01-13T16:21:26.987Z,9.24
2023-01-13T16:26:30.134Z,9.25
2023-01-13T16:31:33.542Z,9.24
2023-01-13T16:36:37.337Z,9.29
2023-01-13T16:41:38.786Z,9.28
2023-01-13T16:46:40.670Z,9.29
2023-01-13T16:51:42.426Z,9.26
2023-01-13T16:56:44.517Z,9.31
2023-01-13T17:01:46.434Z,9.20
2023-01-13T17:06:55.697Z,9.27
2023-01-13T17:11:58.062Z,9.30
2023-01-13T17:16:59.549Z,9.24
2023-01-13T17:22:00.942Z,9.23
2023-01-13T17:27:03.482Z,9.19
2023-01-13T17:32:05.269Z,9.23
2023-01-13T17:37:06.803Z,9.18
2023-01-13T17:42:08.352Z,9.22
2023-01-13T17:47:09.881Z,9.18
2023-01-13T17:52:11.427Z,9.11
2023-01-13T17:57:13.309Z,9.06
2023-01-13T18:02:15.040Z,9.01
2023-01-13T18:07:16.615Z,8.99
2023-01-13T18:12:18.007Z,8.84
2023-01-13T18:17:19.786Z,8.84
2023-01-13T18:22:40.175Z,8.84
2023-01-13T18:27:41.711Z,8.92
2023-01-13T18:32:43.535Z,8.79
2023-01-13T18:37:45.034Z,8.76
2023-01-13T18:42:54.020Z,8.64
2023-01-13T18:47:57.509Z,8.60
2023-01-13T18:52:58.935Z,8.62
2023-01-13T18:58:00.566Z,8.59
2023-01-13T19:08:07.667Z,8.64
2023-01-13T19:13:09.296Z,8.72
2023-01-13T19:18:10.858Z,8.75
2023-01-13T19:23:12.600Z,8.74
2023-01-13T19:28:14.929Z,8.77
2023-01-13T19:33:16.380Z,8.84
2023-01-13T19:38:17.699Z,8.94
2023-01-13T19:43:37.465Z,8.89
2023-01-13T19:48:39.916Z,8.96
2023-01-13T19:53:42.140Z,9.00
2023-01-13T19:58:50.434Z,8.88
2023-01-13T20:03:52.151Z,8.82
2023-01-13T20:08:53.501Z,8.78
2023-01-13T20:13:55.942Z,8.67
2023-01-13T20:18:57.372Z,8.70
2023-01-13T20:23:58.719Z,8.66
2023-01-13T20:29:00.140Z,8.49
2023-01-13T20:34:01.607Z,8.57
2023-01-13T20:39:05.109Z,8.57
2023-01-13T20:44:07.369Z,8.46
2023-01-13T20:49:12.503Z,8.42
2023-01-13T20:54:14.570Z,8.47
2023-01-13T20:59:16.596Z,8.37
2023-01-13T21:04:18.107Z,8.37
2023-01-13T21:09:19.618Z,8.41
2023-01-13T21:14:44.777Z,8.28
2023-01-13T21:19:46.560Z,8.23
2023-01-13T21:24:47.969Z,8.12
2023-01-13T21:29:50.381Z,8.17
2023-01-13T21:34:51.825Z,8.22
2023-01-13T21:39:53.150Z,8.27
2023-01-13T21:45:13.139Z,8.30
2023-01-13T21:50:22.029Z,8.11
2023-01-13T21:55:26.835Z,8.17
2023-01-13T22:00:30.299Z,8.11
2023-01-13T22:05:32.029Z,8.12
2023-01-13T22:10:36.657Z,8.13
2023-01-13T22:15:38.167Z,8.13
2023-01-13T22:20:41.349Z,8.12
2023-01-13T22:25:42.794Z,8.10
2023-01-13T22:30:44.295Z,8.05
2023-01-13T22:35:45.825Z,8.04
2023-01-13T22:40:59.244Z,7.87
2023-01-13T22:46:06.229Z,7.96
2023-01-13T22:51:09.357Z,8.05
2023-01-13T22:56:19.048Z,8.28
2023-01-13T23:01:20.697Z,8.41
2023-01-13T23:06:24.925Z,8.31
2023-01-13T23:11:28.684Z,8.34
2023-01-13T23:16:32.359Z,8.12
2023-01-13T23:21:38.094Z,7.96
2023-01-13T23:26:39.572Z,7.99
2023-01-13T23:31:41.032Z,8.06
2023-01-13T23:36:44.190Z,8.28
2023-01-13T23:41:45.572Z,8.23
2023-01-13T23:46:47.011Z,8.23
2023-01-13T23:51:51.054Z,8.25
2023-01-13T23:56:52.754Z,8.18
